WetterOnline ( https://www.wetteronline.de )

Wetter aktuell Helgoland

Aktuelles Wetter: Helgoland/Düne (8m)

6-stündlich | Neueste Meldungen
Ortszeit Temperatur Wetter
Di, 02.03. 19:00 3.7° C wolkenlos
Di, 02.03. 13:00 1.9° C Nebel
Di, 02.03. 7:00 1.5° C Nebel
Di, 02.03. 1:00 1.6° C Nebel
Mo, 01.03. 19:00 1.1° C Nebel
Mo, 01.03. 13:00 1.6° C Nebel
Mo, 01.03. 7:00 0.7° C Nebel
Mo, 01.03. 1:00 1.6° C Nebel
Ortszeit Temperatur Wetter
Di, 02.03. 19:00 3.7° C wolkenlos
Di, 02.03. 18:50 3.7° C wolkenlos
Di, 02.03. 18:40 3.6° C wolkenlos
Di, 02.03. 18:30 3.5° C wolkenlos
Di, 02.03. 18:20 3.5° C wolkenlos
Di, 02.03. 18:10 3.5° C wolkenlos
Di, 02.03. 18:00 3.2° C leicht bewölkt
Di, 02.03. 17:30 2.8° C Nebel
Di, 02.03. 17:00 2.6° C bedeckt
Di, 02.03. 16:30 2.3° C Nebel
Di, 02.03. 16:00 2.6° C Nebel
Di, 02.03. 15:30 2.5° C Nebel
Ortszeit Relative Feuchte Sichtweite
Di, 02.03. 19:00 100% 20 km
Di, 02.03. 13:00 100% 0.4 km
Di, 02.03. 7:00 100% 0.2 km
Di, 02.03. 1:00 100% 0.4 km
Mo, 01.03. 19:00 100% 0.2 km
Mo, 01.03. 13:00 100% 0.3 km
Mo, 01.03. 7:00 100% 0.2 km
Mo, 01.03. 1:00 100% 0.3 km
Ortszeit Relative Feuchte Sichtweite
Di, 02.03. 19:00 100% 20 km
Di, 02.03. 18:50 100% -
Di, 02.03. 18:40 100% -
Di, 02.03. 18:30 100% 16 km
Di, 02.03. 18:20 100% -
Di, 02.03. 18:10 100% -
Di, 02.03. 18:00 100% 15 km
Di, 02.03. 17:30 100% 0.8 km
Di, 02.03. 17:00 100% 1.3 km
Di, 02.03. 16:30 100% 0.5 km
Di, 02.03. 16:00 100% 0.3 km
Di, 02.03. 15:30 100% 0.4 km
Ortszeit Niederschlagsmenge Niederschlagsart
Di, 02.03. 19:00 0.0 l/m2 in 12 Std. -
Di, 02.03. 13:00 0.0 l/m2 in 6 Std. -
Di, 02.03. 7:00 0.0 l/m2 in 12 Std. -
Di, 02.03. 1:00 0.0 l/m2 in 6 Std. -
Mo, 01.03. 19:00 0.0 l/m2 in 12 Std. -
Mo, 01.03. 13:00 0.0 l/m2 in 6 Std. -
Mo, 01.03. 7:00 0.0 l/m2 in 12 Std. -
Mo, 01.03. 1:00 0.0 l/m2 in 6 Std. -
Ortszeit Niederschlagsmenge Niederschlagsart
Di, 02.03. 19:00 0.0 l/m2 in 1 Std. -
Di, 02.03. 18:50 keine Meldung -
Di, 02.03. 18:40 keine Meldung -
Di, 02.03. 18:30 0.0 l/m2 in 1 Std. -
Di, 02.03. 18:20 keine Meldung -
Di, 02.03. 18:10 keine Meldung -
Di, 02.03. 18:00 0.0 l/m2 in 1 Std. -
Di, 02.03. 17:30 0.0 l/m2 in 1 Std. -
Di, 02.03. 17:00 0.0 l/m2 in 1 Std. -
Di, 02.03. 16:30 0.0 l/m2 in 1 Std. -
Di, 02.03. 16:00 0.0 l/m2 in 1 Std. -
Di, 02.03. 15:30 0.0 l/m2 in 1 Std. -
Ortszeit Stärke Spitze Richtung
km/h Bft. km/h Grad Sektor
Di, 02.03. 19:00 11 2 19 60° NO
Di, 02.03. 13:00 14 3 18 80° O
Di, 02.03. 7:00 11 2 14 80° O
Di, 02.03. 1:00 9 2 13 40° NO
Mo, 01.03. 19:00 4 1 14 130° SO
Mo, 01.03. 13:00 4 1 7 350° N
Mo, 01.03. 7:00 0 0 18 - -
Mo, 01.03. 1:00 11 2 22 300° NW
Ortszeit Stärke Spitze Richtung
km/h Bft. km/h Grad Sektor
Di, 02.03. 19:00 11 2 13 60° NO
Di, 02.03. 18:50 11 2 - 60° NO
Di, 02.03. 18:40 11 2 - 60° NO
Di, 02.03. 18:30 11 2 14 60° NO
Di, 02.03. 18:20 11 2 - 60° NO
Di, 02.03. 18:10 11 2 - 70° O
Di, 02.03. 18:00 9 2 17 70° O
Di, 02.03. 17:30 14 3 18 70° O
Di, 02.03. 17:00 13 3 19 80° O
Di, 02.03. 16:30 14 3 18 80° O
Di, 02.03. 16:00 15 3 19 80° O
Di, 02.03. 15:30 13 3 17 80° O
Ortszeit Untergrenze Bedeckung Gattung
total tief tief mittel hoch
Di, 02.03. 19:00 - 0/8 0/8 - - -
Di, 02.03. 13:00 <30 m 8/8 0/8 - - -
Di, 02.03. 7:00 <30 m 8/8 0/8 - - -
Di, 02.03. 1:00 <30 m 8/8 0/8 - - -
Mo, 01.03. 19:00 <30 m 8/8 0/8 - - -
Mo, 01.03. 13:00 <30 m 8/8 0/8 - - -
Mo, 01.03. 7:00 <30 m 8/8 0/8 - - -
Mo, 01.03. 1:00 <30 m 7/8 0/8 - - -
Ortszeit Bedeckungsgrad in Achtel und Wolkenuntergrenze
Di, 02.03. 19:00 keine Wolken
Di, 02.03. 18:50 keine Wolken
Di, 02.03. 18:40 keine Wolken
Di, 02.03. 18:30 keine Wolken
Di, 02.03. 18:20 keine Wolken
Di, 02.03. 18:10 keine Wolken
Di, 02.03. 18:00 3(<30m)
Di, 02.03. 17:30 6(<30m)
Di, 02.03. 17:00 8(<30m)
Di, 02.03. 16:30 8(<30m)
Di, 02.03. 16:00 8(<30m)
Di, 02.03. 15:30 8(<30m)
Ortszeit Luftdruck NN (hPa) Tendenz (hPa in 3 Std.)
Di, 02.03. 19:00 1032 - 0,7
Di, 02.03. 13:00 1034 - 0,7
Di, 02.03. 7:00 1034 - 0,2
Di, 02.03. 1:00 1035 - 0,7
Mo, 01.03. 19:00 1036 - 0,2
Mo, 01.03. 13:00 1037 + 0,3
Mo, 01.03. 7:00 1037 - 0,1
Mo, 01.03. 1:00 1037 0,0
Ortszeit Luftdruck NN (hPa) Tendenz (hPa in 3 Std.)
Di, 02.03. 19:00 1032 - 0,7
Di, 02.03. 18:50 1032 keine Meldung
Di, 02.03. 18:40 1032 keine Meldung
Di, 02.03. 18:30 1032 - 1,1
Di, 02.03. 18:20 1032 keine Meldung
Di, 02.03. 18:10 1032 keine Meldung
Di, 02.03. 18:00 1032 - 1,3
Di, 02.03. 17:30 1032 - 1,6
Di, 02.03. 17:00 1032 - 1,7
Di, 02.03. 16:30 1032 - 1,7
Di, 02.03. 16:00 1033 - 1,8
Di, 02.03. 15:30 1033 - 1,7
Ortszeit Schneehöhe (cm)
Di, 02.03. 19:00 0
Di, 02.03. 13:00 0
Di, 02.03. 7:00 0
Di, 02.03. 1:00 0
Mo, 01.03. 19:00 0
Mo, 01.03. 13:00 0
Mo, 01.03. 7:00 0
Mo, 01.03. 1:00 0
Ortszeit Schneehöhe (cm)
Di, 02.03. 19:00 0
Di, 02.03. 18:50 0
Di, 02.03. 18:40 0
Di, 02.03. 18:30 0
Di, 02.03. 18:20 0
Di, 02.03. 18:10 0
Di, 02.03. 18:00 0
Di, 02.03. 17:30 0
Di, 02.03. 17:00 0
Di, 02.03. 16:30 0
Di, 02.03. 16:00 0
Di, 02.03. 15:30 0
Link zu dieser Seite / Seite empfehlen

Das Wetter in ...